Time;durP1;ratioP1;P1;durP2;ratioP2;P2;SDS_P1;SDS_P2;PMS_P1;PMS_P2;Temp;Humidity;BMP_temperature;BMP_pressure;BME280_temperature;BME280_humidity;BME280_pressure;Samples;Min_cycle;Max_cycle;Signal;HPM_P1;HPM_P2
2023/03/06 00:02:09;;;;;;;12.55;9.75;;;;;;;4.08;65.75;94481.78;5024003;28;20235;-64
2023/03/06 00:04:36;;;;;;;13.23;10.43;;;;;;;3.98;66.76;94480.28;5023385;28;20807;-62
2023/03/06 00:07:03;;;;;;;14.50;9.45;;;;;;;4.03;67.36;94486.06;5021704;28;20202;-59
2023/03/06 00:09:29;;;;;;;13.30;9.73;;;;;;;3.87;66.20;94484.69;5023775;28;20207;-60
2023/03/06 00:11:56;;;;;;;13.65;10.88;;;;;;;3.87;67.06;94484.69;5022679;28;20222;-62
2023/03/06 00:14:23;;;;;;;12.70;9.65;;;;;;;3.82;67.45;94481.41;5020955;28;20639;-62
2023/03/06 00:16:50;;;;;;;14.60;10.27;;;;;;;3.82;67.38;94483.09;5014073;28;20233;-62
2023/03/06 00:19:18;;;;;;;19.25;10.35;;;;;;;3.73;68.11;94479.03;5027089;28;20206;-64
2023/03/06 00:21:44;;;;;;;11.95;9.52;;;;;;;3.62;68.27;94478.41;5023052;28;20768;-62
2023/03/06 00:24:11;;;;;;;13.20;9.75;;;;;;;3.59;68.46;94480.97;5022751;28;20230;-63
2023/03/06 00:26:40;;;;;;;14.90;10.45;;;;;;;3.59;68.78;94481.78;5023411;28;20264;-59
2023/03/06 00:29:07;;;;;;;13.40;10.27;;;;;;;3.60;68.41;94480.94;5025166;28;20586;-62
2023/03/06 00:31:34;;;;;;;12.15;10.15;;;;;;;3.61;68.88;94485.09;5025592;28;20213;-59
2023/03/06 00:34:01;;;;;;;12.90;9.93;;;;;;;3.73;67.99;94486.56;5021849;28;20857;-61
2023/03/06 00:36:30;;;;;;;11.90;9.57;;;;;;;3.69;68.08;94464.88;5026613;28;20230;-64
2023/03/06 00:38:56;;;;;;;14.85;9.45;;;;;;;3.93;68.11;94473.69;5023788;28;20978;-60
2023/03/06 00:41:23;;;;;;;12.60;10.10;;;;;;;3.99;67.18;94479.41;5023575;28;21716;-62
2023/03/06 00:43:50;;;;;;;11.63;8.80;;;;;;;4.06;68.02;94470.91;5030115;28;22387;-64
2023/03/06 00:46:17;;;;;;;10.85;9.45;;;;;;;4.14;67.11;94472.47;5028197;28;20225;-61
2023/03/06 00:48:44;;;;;;;10.80;9.27;;;;;;;4.21;66.30;94469.81;5025379;28;21752;-62
2023/03/06 00:51:10;;;;;;;15.40;10.23;;;;;;;4.20;66.21;94467.34;5027453;28;20239;-65
2023/03/06 00:53:38;;;;;;;12.88;9.20;;;;;;;4.24;66.06;94471.44;5028218;28;20214;-65
2023/03/06 00:56:07;;;;;;;11.95;9.60;;;;;;;4.29;66.03;94467.97;5025277;28;21925;-64
2023/03/06 00:58:36;;;;;;;12.20;8.95;;;;;;;4.34;65.35;94470.41;5024862;28;20297;-61
2023/03/06 01:01:02;;;;;;;10.55;9.25;;;;;;;4.35;65.43;94472.91;5024773;28;20204;-62
2023/03/06 01:03:29;;;;;;;15.02;10.38;;;;;;;4.39;65.52;94471.16;5028612;28;20206;-62
2023/03/06 01:05:56;;;;;;;11.38;8.98;;;;;;;4.36;65.79;94469.53;5026343;28;20211;-64
2023/03/06 01:08:23;;;;;;;13.70;9.95;;;;;;;4.33;65.83;94463.72;5027887;28;20198;-60
2023/03/06 01:10:51;;;;;;;14.93;8.77;;;;;;;4.48;65.84;94463.41;5026509;28;20268;-64
2023/03/06 01:13:18;;;;;;;13.68;9.38;;;;;;;4.53;65.07;94461.63;5028684;28;20245;-63
2023/03/06 01:15:44;;;;;;;10.55;9.30;;;;;;;4.62;64.70;94453.09;5028256;28;20203;-63
2023/03/06 01:18:11;;;;;;;14.95;9.15;;;;;;;4.62;64.64;94463.16;5023446;28;20222;-62
2023/03/06 01:20:38;;;;;;;14.25;10.18;;;;;;;4.49;65.35;94460.03;5022396;28;20206;-63
2023/03/06 01:23:05;;;;;;;13.65;8.98;;;;;;;4.41;64.85;94457.69;5027743;28;20199;-64
2023/03/06 01:25:32;;;;;;;12.63;8.95;;;;;;;4.30;65.76;94458.75;5030682;28;20217;-64
2023/03/06 01:28:00;;;;;;;14.50;9.57;;;;;;;4.24;65.57;94459.69;5029966;28;20195;-61
2023/03/06 01:30:27;;;;;;;16.42;10.45;;;;;;;4.38;66.07;94462.78;5026189;28;20203;-66
2023/03/06 01:32:53;;;;;;;15.52;9.65;;;;;;;4.34;65.89;94460.34;5028571;28;20227;-63
2023/03/06 01:35:20;;;;;;;10.15;9.05;;;;;;;4.43;65.93;94461.00;5023259;28;20214;-61
2023/03/06 01:37:47;;;;;;;14.00;9.75;;;;;;;4.46;65.54;94455.06;5023014;28;20760;-61
2023/03/06 01:40:14;;;;;;;14.45;9.10;;;;;;;4.44;65.49;94451.78;5026238;28;20312;-61
2023/03/06 01:42:41;;;;;;;15.75;9.48;;;;;;;4.42;65.99;94453.50;5028300;28;21104;-62
2023/03/06 01:45:41;;;;;;;16.27;9.43;;;;;;;4.32;65.84;94452.00;5030762;28;20884;-60
2023/03/06 01:48:09;;;;;;;13.00;9.38;;;;;;;4.22;66.63;94453.03;5024150;28;20688;-61
2023/03/06 01:50:36;;;;;;;12.23;9.05;;;;;;;4.16;66.90;94450.66;5024273;28;20289;-62
2023/03/06 01:53:04;;;;;;;12.73;9.60;;;;;;;4.21;66.92;94448.84;5024914;28;20207;-61
2023/03/06 01:55:34;;;;;;;10.15;9.15;;;;;;;4.17;66.42;94450.63;5027055;28;20288;-63
2023/03/06 01:58:05;;;;;;;14.80;9.98;;;;;;;4.19;67.35;94451.44;5025046;28;20221;-63
2023/03/06 02:00:31;;;;;;;15.60;10.35;;;;;;;4.25;66.69;94450.47;5028240;28;20213;-63
2023/03/06 02:03:04;;;;;;;14.73;9.65;;;;;;;4.33;66.10;94448.63;5028007;28;20202;-62
2023/03/06 02:05:32;;;;;;;15.38;10.25;;;;;;;4.24;66.88;94451.31;5023787;28;20989;-65
2023/03/06 02:08:00;;;;;;;16.25;10.23;;;;;;;4.27;66.88;94458.81;5022770;28;20217;-64
2023/03/06 02:10:27;;;;;;;17.48;10.35;;;;;;;4.24;66.78;94451.31;5026674;28;20218;-66
2023/03/06 02:12:54;;;;;;;18.65;11.48;;;;;;;4.30;65.96;94452.03;5025595;28;20755;-63
2023/03/06 02:15:23;;;;;;;13.95;10.25;;;;;;;4.43;66.45;94450.94;5027425;28;20599;-62
2023/03/06 02:17:52;;;;;;;13.10;9.55;;;;;;;4.29;66.33;94447.03;5027279;28;20231;-62
2023/03/06 02:20:26;;;;;;;13.60;9.68;;;;;;;4.33;66.27;94456.19;5025428;28;20264;-63
2023/03/06 02:23:03;;;;;;;13.73;9.65;;;;;;;4.27;66.67;94451.25;5025530;28;20935;-61
2023/03/06 02:25:35;;;;;;;15.20;10.75;;;;;;;4.30;66.73;94449.50;5020307;28;20257;-67
2023/03/06 02:28:03;;;;;;;16.63;10.68;;;;;;;4.33;66.36;94454.50;5026002;28;20645;-61
2023/03/06 02:30:30;;;;;;;11.63;9.55;;;;;;;4.28;65.84;94452.91;5025736;28;20268;-64
2023/03/06 02:32:57;;;;;;;10.35;9.35;;;;;;;4.37;65.67;94456.09;5028856;28;20208;-63
2023/03/06 02:35:27;;;;;;;12.88;9.60;;;;;;;4.40;66.02;94451.00;5027224;28;20653;-62
2023/03/06 02:37:55;;;;;;;13.38;10.02;;;;;;;4.28;66.34;94452.91;5021132;28;20276;-64
2023/03/06 02:40:23;;;;;;;14.18;10.35;;;;;;;4.31;65.68;94465.44;5025565;28;20334;-61
2023/03/06 02:42:55;;;;;;;15.60;9.85;;;;;;;4.26;66.30;94457.16;5025627;28;20722;-66
2023/03/06 02:45:28;;;;;;;13.25;9.82;;;;;;;4.31;65.72;94458.72;5024127;28;20214;-63
2023/03/06 02:47:54;;;;;;;14.32;9.35;;;;;;;4.42;65.01;94466.06;5021828;28;20225;-62
2023/03/06 02:50:21;;;;;;;15.90;10.30;;;;;;;4.29;65.83;94457.91;5016261;28;21398;-62
2023/03/06 02:52:48;;;;;;;13.55;10.07;;;;;;;4.43;65.02;94461.00;5024472;28;20201;-57
2023/03/06 02:55:15;;;;;;;13.50;9.77;;;;;;;4.50;64.56;94465.91;5026814;28;20233;-65
2023/03/06 02:57:42;;;;;;;15.38;10.57;;;;;;;4.41;63.95;94461.91;5024148;28;20238;-64
2023/03/06 03:00:13;;;;;;;14.02;9.60;;;;;;;4.44;65.35;94457.63;5033408;28;20259;-63
2023/03/06 03:02:39;;;;;;;11.55;9.45;;;;;;;4.42;64.67;94466.06;5024571;28;20206;-64
2023/03/06 03:05:07;;;;;;;15.23;8.85;;;;;;;4.45;64.78;94463.50;4993516;28;20669;-62
2023/03/06 03:07:34;;;;;;;12.15;9.88;;;;;;;4.47;64.25;94456.72;5017947;28;20679;-62
2023/03/06 03:10:00;;;;;;;13.13;9.75;;;;;;;4.56;64.27;94458.25;5013712;28;20600;-62
2023/03/06 03:12:28;;;;;;;14.35;9.80;;;;;;;4.45;65.15;94463.50;5020807;28;20205;-64
2023/03/06 03:14:55;;;;;;;16.00;11.23;;;;;;;4.34;64.80;94455.31;5015811;28;20210;-62
2023/03/06 03:17:23;;;;;;;13.95;10.43;;;;;;;4.36;65.25;94467.00;5016290;28;20237;-62
2023/03/06 03:19:50;;;;;;;16.08;10.50;;;;;;;4.32;66.77;94462.91;5023653;28;20203;-63
2023/03/06 03:22:18;;;;;;;16.77;10.95;;;;;;;4.28;65.90;94475.56;5023274;28;20595;-63
2023/03/06 03:24:45;;;;;;;14.77;11.50;;;;;;;4.21;67.07;94466.44;5019014;28;20225;-63
2023/03/06 03:27:13;;;;;;;18.00;11.70;;;;;;;4.25;66.76;94468.06;5019106;28;21493;-64
2023/03/06 03:29:39;;;;;;;17.40;11.73;;;;;;;4.19;67.55;94470.72;5017966;28;20210;-63
2023/03/06 03:32:07;;;;;;;22.27;14.27;;;;;;;4.07;67.13;94472.59;5020496;28;20209;-63
2023/03/06 03:34:35;;;;;;;29.63;18.48;;;;;;;3.93;68.02;94477.03;5019291;28;20470;-60
2023/03/06 03:37:02;;;;;;;45.45;24.00;;;;;;;3.85;68.35;94467.97;5018857;28;20249;-64
2023/03/06 03:39:29;;;;;;;46.95;28.27;;;;;;;3.64;68.28;94471.66;5016652;28;20567;-65
2023/03/06 03:41:56;;;;;;;72.88;38.63;;;;;;;3.39;69.73;94471.22;5024146;28;20203;-65
2023/03/06 03:44:22;;;;;;;71.68;38.15;;;;;;;3.33;69.73;94477.16;5022739;28;20675;-62
2023/03/06 03:46:49;;;;;;;65.35;38.20;;;;;;;3.29;70.56;94469.69;5021338;28;20256;-64
2023/03/06 03:49:16;;;;;;;61.05;35.58;;;;;;;3.17;70.85;94469.91;5019579;28;20211;-62
2023/03/06 03:51:44;;;;;;;50.35;33.78;;;;;;;3.10;70.82;94474.16;5020416;28;20218;-60
2023/03/06 03:54:11;;;;;;;45.63;30.05;;;;;;;2.97;71.46;94472.69;5014872;28;20278;-65
2023/03/06 03:56:39;;;;;;;44.40;26.10;;;;;;;2.81;71.86;94461.19;5016527;28;20213;-64
2023/03/06 03:59:06;;;;;;;36.63;25.17;;;;;;;2.93;72.41;94481.13;5020540;28;20296;-60
2023/03/06 04:01:32;;;;;;;46.90;24.55;;;;;;;2.81;73.06;94474.56;5020263;28;20210;-63
2023/03/06 04:03:59;;;;;;;33.50;23.17;;;;;;;2.83;72.73;94485.41;5019962;28;20206;-62
2023/03/06 04:06:26;;;;;;;36.28;21.58;;;;;;;2.92;73.03;94481.97;5020401;28;20256;-61
2023/03/06 04:08:54;;;;;;;29.98;17.48;;;;;;;2.87;73.17;94484.53;5020114;28;20193;-60
2023/03/06 04:11:21;;;;;;;23.95;16.35;;;;;;;2.85;73.24;94485.41;5019263;28;20215;-62
2023/03/06 04:13:48;;;;;;;21.50;15.48;;;;;;;2.73;73.48;94488.88;5017960;28;20211;-62
2023/03/06 04:16:15;;;;;;;21.88;13.70;;;;;;;2.81;73.62;94481.25;5022175;28;20214;-63
2023/03/06 04:18:41;;;;;;;17.77;13.25;;;;;;;2.95;74.17;94484.44;5024251;28;20223;-64
2023/03/06 04:21:08;;;;;;;20.52;12.68;;;;;;;3.14;72.74;94495.03;5022456;28;20709;-62
2023/03/06 04:23:36;;;;;;;17.90;11.75;;;;;;;3.12;72.93;94491.72;5020012;28;20206;-65
2023/03/06 04:26:04;;;;;;;21.02;11.85;;;;;;;3.28;72.38;94493.97;5017720;28;20203;-64
2023/03/06 04:28:31;;;;;;;19.58;13.05;;;;;;;3.37;71.59;94493.84;5018944;28;20234;-63
2023/03/06 04:30:58;;;;;;;17.13;12.50;;;;;;;3.37;71.26;94495.53;5023232;28;20199;-61
2023/03/06 04:33:25;;;;;;;18.55;12.40;;;;;;;3.49;70.25;94492.00;5021108;28;20211;-61
2023/03/06 04:35:51;;;;;;;18.77;12.23;;;;;;;3.42;70.37;94486.25;5024516;28;21100;-62
2023/03/06 04:38:18;;;;;;;21.30;11.45;;;;;;;3.52;70.67;94507.03;5022706;28;20678;-62
2023/03/06 04:40:45;;;;;;;15.02;11.18;;;;;;;3.63;70.89;94508.53;5025462;28;20226;-59
2023/03/06 04:43:13;;;;;;;17.38;11.45;;;;;;;3.76;69.95;94499.09;5020312;28;20268;-61
2023/03/06 04:45:40;;;;;;;34.65;20.00;;;;;;;3.64;70.38;94500.13;5018330;28;20256;-59
2023/03/06 04:48:07;;;;;;;30.05;16.58;;;;;;;3.56;70.53;94503.63;5018440;28;20680;-62
2023/03/06 04:50:36;;;;;;;18.73;13.73;;;;;;;3.69;71.00;94505.94;5017756;28;20298;-62
2023/03/06 04:53:03;;;;;;;17.40;11.50;;;;;;;3.86;69.46;94505.63;5020507;28;20215;-65
2023/03/06 04:55:30;;;;;;;21.23;11.88;;;;;;;3.85;69.63;94498.94;5022135;28;20234;-62
2023/03/06 04:57:57;;;;;;;15.25;11.82;;;;;;;3.90;70.45;94508.94;5020046;28;20280;-62
2023/03/06 05:00:30;;;;;;;15.68;11.82;;;;;;;3.95;70.41;94500.47;5024787;28;20202;-63
2023/03/06 05:02:57;;;;;;;18.73;10.98;;;;;;;4.00;69.53;94508.72;5021060;28;20203;-61
2023/03/06 05:05:24;;;;;;;23.90;13.98;;;;;;;4.13;70.62;94506.84;5022169;28;20211;-64
2023/03/06 05:07:51;;;;;;;20.92;12.80;;;;;;;4.17;70.49;94500.91;5018732;28;20530;-63
2023/03/06 05:10:18;;;;;;;22.27;12.07;;;;;;;4.23;69.15;94503.28;5024766;28;20280;-64
2023/03/06 05:12:45;;;;;;;18.52;12.25;;;;;;;4.31;68.92;94508.19;5018928;28;22728;-64
2023/03/06 05:15:15;;;;;;;28.02;12.70;;;;;;;4.31;68.42;94503.16;5020776;28;20265;-64
2023/03/06 05:17:44;;;;;;;19.85;12.57;;;;;;;4.31;68.47;94500.66;5019371;28;20234;-64
2023/03/06 05:20:14;;;;;;;21.25;12.52;;;;;;;4.34;67.62;94505.63;5024324;28;20676;-62
2023/03/06 05:22:41;;;;;;;20.30;12.38;;;;;;;4.31;67.19;94506.50;5020457;28;20229;-63
2023/03/06 05:25:09;;;;;;;19.02;12.75;;;;;;;4.42;67.19;94501.28;5018176;28;20252;-64
2023/03/06 05:27:36;;;;;;;21.17;12.38;;;;;;;4.40;67.81;94508.03;5016134;28;20203;-62
2023/03/06 05:30:04;;;;;;;17.85;11.05;;;;;;;4.57;67.45;94513.56;5024363;28;20312;-63
2023/03/06 05:32:31;;;;;;;24.02;13.70;;;;;;;4.57;67.11;94518.59;5018896;28;20704;-64
2023/03/06 05:34:59;;;;;;;24.20;14.18;;;;;;;4.64;67.59;94512.59;5018268;28;20692;-64
2023/03/06 05:37:26;;;;;;;24.92;14.18;;;;;;;4.72;66.27;94517.47;5016728;28;20257;-64
2023/03/06 05:39:52;;;;;;;21.17;13.93;;;;;;;4.67;67.52;94520.09;5019752;28;20227;-62
2023/03/06 05:42:19;;;;;;;21.77;14.40;;;;;;;4.66;68.03;94520.94;5020857;28;20646;-64
2023/03/06 05:44:46;;;;;;;30.05;15.85;;;;;;;4.72;68.07;94514.94;5021426;28;20211;-65
2023/03/06 05:47:14;;;;;;;18.73;13.05;;;;;;;4.71;68.01;94516.63;5022672;28;20202;-63
2023/03/06 05:49:41;;;;;;;22.85;13.27;;;;;;;4.88;66.79;94528.06;5022152;28;20296;-64
2023/03/06 05:52:11;;;;;;;22.33;12.75;;;;;;;5.07;66.61;94530.19;5020507;28;20203;-63
2023/03/06 05:54:38;;;;;;;17.50;12.63;;;;;;;5.65;64.39;94530.59;5022676;28;20271;-67
2023/03/06 05:57:06;;;;;;;25.73;13.68;;;;;;;6.70;61.83;94533.81;5024706;28;20298;-63
2023/03/06 05:59:33;;;;;;;19.17;12.10;;;;;;;7.83;58.21;94528.00;5021183;28;20720;-63
2023/03/06 06:02:00;;;;;;;20.73;11.63;;;;;;;8.85;55.02;94520.38;5022113;28;20210;-62
2023/03/06 06:04:27;;;;;;;15.40;12.05;;;;;;;9.59;51.30;94518.47;5019249;28;20199;-66
2023/03/06 06:06:55;;;;;;;15.93;11.20;;;;;;;10.16;50.21;94525.47;5020781;28;20205;-64
2023/03/06 06:09:24;;;;;;;20.30;10.25;;;;;;;11.95;46.65;94522.75;5021350;28;20227;-59
2023/03/06 06:11:51;;;;;;;16.98;10.52;;;;;;;13.83;42.23;94519.94;5020814;28;20210;-60
2023/03/06 06:14:18;;;;;;;15.18;10.32;;;;;;;15.45;40.44;94521.59;5021996;28;20709;-61
2023/03/06 06:16:45;;;;;;;14.88;10.82;;;;;;;16.24;35.68;94519.22;5019578;28;20207;-61
2023/03/06 06:19:17;;;;;;;16.33;11.50;;;;;;;15.82;36.26;94526.16;5019919;28;20300;-64
2023/03/06 06:21:45;;;;;;;17.73;11.30;;;;;;;15.01;37.94;94537.06;5021399;28;20734;-65
2023/03/06 06:24:12;;;;;;;14.57;10.98;;;;;;;14.98;38.53;94528.66;5017891;28;20202;-64
2023/03/06 06:26:41;;;;;;;19.60;11.38;;;;;;;15.34;37.84;94537.63;5020049;28;20563;-62
2023/03/06 06:29:08;;;;;;;16.33;11.18;;;;;;;14.97;38.58;94531.31;5019263;28;20206;-63
2023/03/06 06:31:35;;;;;;;17.83;12.63;;;;;;;14.84;38.72;94528.66;5024519;28;20201;-63
2023/03/06 06:34:02;;;;;;;16.65;13.30;;;;;;;15.41;37.26;94541.44;5021824;28;20208;-62
2023/03/06 06:36:29;;;;;;;17.70;12.27;;;;;;;16.35;36.50;94529.59;5018781;28;20213;-65
2023/03/06 06:38:55;;;;;;;15.43;11.18;;;;;;;16.64;34.92;94535.41;5021084;28;20222;-63
2023/03/06 06:41:22;;;;;;;17.92;12.80;;;;;;;16.90;35.15;94526.81;5017612;28;20293;-62
2023/03/06 06:43:50;;;;;;;16.15;12.30;;;;;;;17.75;33.02;94527.88;5017337;28;20661;-63
2023/03/06 06:46:17;;;;;;;18.55;12.27;;;;;;;18.72;31.35;94527.75;5020357;28;20265;-62
2023/03/06 06:48:44;;;;;;;23.60;13.40;;;;;;;19.59;30.21;94529.72;5021299;28;20288;-61
2023/03/06 06:51:11;;;;;;;15.45;13.32;;;;;;;20.55;28.76;94531.59;5018687;28;20238;-63
2023/03/06 06:53:37;;;;;;;20.27;13.40;;;;;;;20.88;27.70;94526.28;5020428;28;22355;-62
2023/03/06 06:56:05;;;;;;;18.48;13.30;;;;;;;21.59;26.62;94531.56;5021179;28;20213;-63
2023/03/06 06:58:31;;;;;;;19.88;14.05;;;;;;;21.96;25.95;94530.03;5023769;28;20223;-64
2023/03/06 07:01:05;;;;;;;22.58;13.60;;;;;;;22.18;27.05;94533.38;5018204;28;20203;-64
2023/03/06 07:03:31;;;;;;;16.92;13.27;;;;;;;21.11;26.21;94541.63;5021380;28;20203;-66
2023/03/06 07:05:58;;;;;;;22.83;13.20;;;;;;;19.95;28.57;94544.09;5019551;28;20195;-61
2023/03/06 07:08:25;;;;;;;20.25;13.80;;;;;;;19.60;30.97;94551.97;5019336;28;20199;-63
2023/03/06 07:10:52;;;;;;;20.00;13.60;;;;;;;19.72;28.31;94537.34;5018151;28;20259;-63
2023/03/06 07:13:19;;;;;;;16.85;12.82;;;;;;;20.33;28.84;94535.88;5020351;28;20263;-61
2023/03/06 07:15:46;;;;;;;17.15;12.40;;;;;;;21.27;27.25;94531.72;5015121;28;20203;-63
2023/03/06 07:18:14;;;;;;;18.40;12.63;;;;;;;21.91;26.35;94531.38;5020720;28;20744;-63
2023/03/06 07:20:41;;;;;;;16.92;12.15;;;;;;;22.88;24.91;94537.50;5019935;28;20268;-62
2023/03/06 07:23:08;;;;;;;17.08;12.30;;;;;;;23.44;24.36;94539.28;5019203;28;20206;-60
2023/03/06 07:25:35;;;;;;;14.52;12.35;;;;;;;23.74;22.73;94542.47;5018110;28;20210;-64
2023/03/06 07:28:01;;;;;;;13.55;12.15;;;;;;;22.63;23.28;94528.50;5019512;28;20207;-63
2023/03/06 07:30:28;;;;;;;19.70;13.93;;;;;;;21.62;25.81;94551.97;5019076;28;20645;-63
2023/03/06 07:32:56;;;;;;;18.27;12.95;;;;;;;21.82;24.85;94532.16;5022249;28;20748;-61
2023/03/06 07:35:25;;;;;;;18.70;12.80;;;;;;;22.52;23.86;94532.03;5021591;28;20279;-62
2023/03/06 07:37:53;;;;;;;13.50;11.38;;;;;;;23.05;23.35;94539.38;5021283;28;20218;-60
2023/03/06 07:40:20;;;;;;;13.43;11.95;;;;;;;23.79;22.63;94530.81;5021421;28;20758;-68
2023/03/06 07:42:47;;;;;;;15.15;12.30;;;;;;;23.87;22.61;94536.94;5017198;28;20206;-63
2023/03/06 07:45:14;;;;;;;14.88;13.27;;;;;;;23.38;23.03;94538.06;5022081;28;20649;-65
2023/03/06 07:47:41;;;;;;;15.45;12.75;;;;;;;22.69;25.00;94540.91;5021101;28;20206;-63
2023/03/06 07:50:09;;;;;;;16.50;13.02;;;;;;;22.42;24.64;94540.75;5014800;28;20681;-63
2023/03/06 07:52:37;;;;;;;14.35;11.43;;;;;;;22.06;25.77;94540.44;5021718;28;20788;-64
2023/03/06 07:55:05;;;;;;;13.88;11.52;;;;;;;22.26;25.30;94551.66;5027834;28;20211;-63
2023/03/06 07:57:32;;;;;;;13.70;11.02;;;;;;;23.26;23.90;94545.19;5024204;28;20300;-65
2023/03/06 07:59:58;;;;;;;12.52;10.73;;;;;;;23.38;22.62;94543.25;5025235;28;20607;-65
2023/03/06 08:02:25;;;;;;;15.40;11.25;;;;;;;23.23;23.47;94548.09;5023510;28;20221;-65
2023/03/06 08:04:53;;;;;;;11.77;9.98;;;;;;;23.87;22.33;94541.31;5020055;28;20213;-64
2023/03/06 08:07:20;;;;;;;12.20;9.80;;;;;;;25.49;20.98;94537.56;5024769;28;20217;-62
2023/03/06 08:09:49;;;;;;;10.77;9.65;;;;;;;27.24;18.66;94534.91;5019803;28;20206;-64
2023/03/06 08:12:16;;;;;;;10.15;9.15;;;;;;;28.69;17.43;94537.13;5022875;28;20967;-62
2023/03/06 08:14:42;;;;;;;10.32;9.20;;;;;;;29.42;17.45;94526.91;5026249;28;20244;-61
2023/03/06 08:17:09;;;;;;;10.70;9.80;;;;;;;29.53;16.65;94507.31;5024680;28;20753;-64
2023/03/06 08:19:36;;;;;;;12.18;10.70;;;;;;;30.44;16.41;94525.16;5024878;28;20235;-63
2023/03/06 08:22:04;;;;;;;12.93;10.63;;;;;;;30.75;16.32;94529.34;5020442;28;20261;-64
2023/03/06 08:24:31;;;;;;;15.00;10.00;;;;;;;31.11;15.66;94524.84;5023472;28;20209;-62
2023/03/06 08:26:59;;;;;;;12.52;9.85;;;;;;;31.14;15.51;94533.34;5024546;28;20306;-65
2023/03/06 08:29:26;;;;;;;13.77;11.20;;;;;;;31.20;15.89;94528.13;5025138;28;20210;-66
2023/03/06 08:31:53;;;;;;;12.05;9.85;;;;;;;31.73;15.45;94518.81;5021892;28;20203;-67
2023/03/06 08:34:23;;;;;;;10.57;9.68;;;;;;;31.22;15.35;94526.13;5020852;28;20238;-65
2023/03/06 08:36:50;;;;;;;12.85;9.32;;;;;;;30.88;15.57;94523.41;5025733;28;20202;-61
2023/03/06 08:39:17;;;;;;;10.48;9.52;;;;;;;30.41;16.70;94511.66;5023641;28;20227;-64
2023/03/06 08:41:44;;;;;;;12.75;11.38;;;;;;;30.49;15.59;94522.00;5024400;28;21857;-64
2023/03/06 08:44:12;;;;;;;14.02;11.10;;;;;;;29.87;16.35;94495.47;5021309;28;20215;-65
2023/03/06 08:46:39;;;;;;;12.90;9.95;;;;;;;29.73;16.70;94518.84;5023941;28;20867;-62
2023/03/06 08:49:06;;;;;;;10.73;9.82;;;;;;;29.52;16.77;94510.09;5023588;28;20218;-64
2023/03/06 08:51:33;;;;;;;13.20;11.90;;;;;;;29.56;17.07;94522.66;5024867;28;20250;-63
2023/03/06 08:54:00;;;;;;;15.18;11.90;;;;;;;29.06;16.44;94516.25;5023687;28;20213;-64
2023/03/06 08:56:28;;;;;;;12.30;11.13;;;;;;;27.89;17.58;94513.06;5021999;28;20229;-65
2023/03/06 08:58:58;;;;;;;13.35;10.73;;;;;;;27.13;18.49;94513.56;5021069;28;20661;-61
2023/03/06 09:01:28;;;;;;;15.02;11.80;;;;;;;26.74;19.15;94520.22;5023791;28;20263;-61
2023/03/06 09:03:56;;;;;;;16.83;11.20;;;;;;;26.06;19.79;94514.41;5020347;28;20888;-62
2023/03/06 09:06:25;;;;;;;11.95;10.65;;;;;;;25.61;20.02;94510.31;5020135;28;20211;-62
2023/03/06 09:08:52;;;;;;;12.80;10.90;;;;;;;25.07;20.71;94516.66;5021478;28;20629;-61
2023/03/06 09:11:21;;;;;;;12.25;10.30;;;;;;;23.29;22.54;94515.56;5025489;28;20194;-65
2023/03/06 09:13:48;;;;;;;14.13;10.95;;;;;;;21.81;23.86;94518.41;5023155;28;20272;-65
2023/03/06 09:16:15;;;;;;;16.60;11.13;;;;;;;21.32;25.43;94524.38;5021723;28;20206;-64
2023/03/06 09:18:43;;;;;;;12.82;10.85;;;;;;;20.99;25.33;94515.88;5024154;28;20202;-64
2023/03/06 09:21:11;;;;;;;29.13;17.38;;;;;;;20.37;25.72;94516.66;5024757;28;20294;-63
2023/03/06 09:23:39;;;;;;;13.32;11.30;;;;;;;19.10;26.63;94509.44;5022183;28;20202;-64
2023/03/06 09:26:07;;;;;;;17.85;12.00;;;;;;;18.28;29.06;94518.13;5025103;28;20311;-65
2023/03/06 09:28:35;;;;;;;14.20;11.30;;;;;;;17.75;29.92;94519.34;5021506;28;21926;-64
2023/03/06 09:31:06;;;;;;;11.95;10.75;;;;;;;17.47;30.57;94507.56;5021361;28;20257;-62
2023/03/06 09:33:33;;;;;;;18.42;11.80;;;;;;;17.45;31.72;94514.56;5025303;28;20207;-68
2023/03/06 09:36:03;;;;;;;15.02;11.23;;;;;;;17.21;31.39;94511.94;5020030;28;20210;-62
2023/03/06 09:38:30;;;;;;;15.55;10.70;;;;;;;16.77;31.89;94518.31;5020434;28;20207;-61
2023/03/06 09:41:04;;;;;;;16.95;10.80;;;;;;;16.52;32.27;94511.38;5020764;28;20234;-63
2023/03/06 09:43:35;;;;;;;16.33;11.48;;;;;;;15.81;32.42;94521.94;5022601;28;20205;-63
2023/03/06 09:46:07;;;;;;;18.23;12.73;;;;;;;14.92;34.48;94517.97;5021450;28;20213;-63
2023/03/06 09:48:42;;;;;;;18.60;10.27;;;;;;;14.27;34.80;94515.72;5021080;28;20219;-65
2023/03/06 09:51:15;;;;;;;17.80;11.48;;;;;;;13.73;36.42;94516.22;5026304;28;20233;-60
2023/03/06 09:53:56;;;;;;;13.40;11.10;;;;;;;13.23;37.89;94514.66;5028216;28;21512;-65
2023/03/06 09:56:29;;;;;;;20.70;11.57;;;;;;;12.85;38.83;94509.78;5026665;28;20208;-65
2023/03/06 09:59:02;;;;;;;15.10;11.27;;;;;;;12.73;39.43;94507.84;5025526;28;20218;-61
2023/03/06 10:01:34;;;;;;;17.63;11.68;;;;;;;12.73;39.11;94510.38;5027837;28;20749;-65
2023/03/06 10:04:11;;;;;;;20.95;11.73;;;;;;;12.60;40.66;94504.28;5026469;28;20647;-62
2023/03/06 10:06:47;;;;;;;15.15;10.93;;;;;;;12.95;39.66;94498.19;5027321;28;20198;-63
2023/03/06 10:09:17;;;;;;;14.55;10.63;;;;;;;13.02;39.36;94500.44;5026552;28;20687;-65
2023/03/06 10:11:48;;;;;;;14.43;10.85;;;;;;;13.07;39.53;94499.28;5026742;28;20199;-65
2023/03/06 10:14:22;;;;;;;17.13;10.98;;;;;;;13.20;39.26;94495.22;5026864;28;20210;-63
2023/03/06 10:16:49;;;;;;;15.50;11.48;;;;;;;13.32;38.65;94492.94;5026570;28;20207;-61
2023/03/06 10:19:17;;;;;;;18.63;11.45;;;;;;;13.72;39.72;94496.69;5026668;28;20703;-63
2023/03/06 10:21:56;;;;;;;20.17;11.05;;;;;;;14.24;37.70;94485.22;5027050;28;20206;-62
2023/03/06 10:24:35;;;;;;;13.95;11.25;;;;;;;14.58;36.69;94485.88;5027149;28;20210;-62
2023/03/06 10:27:14;;;;;;;14.25;9.90;;;;;;;14.72;36.39;94475.66;5027980;28;20202;-60
2023/03/06 10:29:52;;;;;;;17.55;10.35;;;;;;;15.19;36.85;94484.78;5028174;28;20245;-65
2023/03/06 10:32:27;;;;;;;15.05;10.85;;;;;;;15.16;35.34;94478.09;5027975;28;20217;-63
2023/03/06 10:34:57;;;;;;;15.88;10.43;;;;;;;14.94;35.64;94476.03;5027216;28;21043;-64
2023/03/06 10:37:28;;;;;;;16.80;10.73;;;;;;;14.72;36.25;94470.53;5026109;28;21433;-64
2023/03/06 10:40:02;;;;;;;14.77;10.50;;;;;;;14.34;36.47;94484.72;5026439;28;20797;-62
2023/03/06 10:42:29;;;;;;;14.65;11.32;;;;;;;13.89;38.02;94478.72;5026722;28;20294;-63
2023/03/06 10:45:10;;;;;;;14.75;10.90;;;;;;;13.49;38.40;94474.97;5026499;28;20218;-65
2023/03/06 10:47:39;;;;;;;18.17;10.55;;;;;;;13.45;38.84;94464.09;5024696;28;20209;-64
2023/03/06 10:50:18;;;;;;;18.00;10.85;;;;;;;13.43;38.86;94465.91;5024352;28;20700;-62
2023/03/06 10:52:59;;;;;;;16.38;10.68;;;;;;;13.44;38.92;94457.34;5021496;28;20199;-60
2023/03/06 10:55:29;;;;;;;18.80;11.15;;;;;;;13.61;38.62;94454.69;5023651;28;20226;-62
2023/03/06 10:57:56;;;;;;;18.35;11.45;;;;;;;13.79;38.69;94446.94;5018965;28;20623;-61
2023/03/06 11:00:34;;;;;;;17.65;11.32;;;;;;;13.90;39.37;94450.53;5023324;28;20273;-64
2023/03/06 11:03:23;;;;;;;14.55;9.57;;;;;;;14.08;38.71;94447.88;5024498;28;20290;-62
2023/03/06 11:06:07;;;;;;;18.27;10.77;;;;;;;14.17;38.43;94440.47;5008627;28;20220;-62
2023/03/06 11:08:35;;;;;;;17.05;10.48;;;;;;;14.03;38.30;94440.47;5015350;28;20214;-61
2023/03/06 11:11:04;;;;;;;18.42;11.10;;;;;;;13.54;39.22;94438.09;5017366;28;20215;-60
2023/03/06 11:13:33;;;;;;;16.33;10.88;;;;;;;13.03;40.26;94426.38;5020708;28;20759;-63
2023/03/06 11:16:06;;;;;;;19.13;11.13;;;;;;;12.57;41.32;94428.78;5016177;28;20215;-63
2023/03/06 11:18:38;;;;;;;15.10;10.38;;;;;;;12.15;42.18;94431.75;5019919;28;20608;-64
2023/03/06 11:21:23;;;;;;;14.77;9.88;;;;;;;12.07;42.72;94427.97;5019972;28;20278;-62
2023/03/06 11:23:52;;;;;;;16.60;10.95;;;;;;;12.13;42.63;94425.91;5020068;28;20199;-60
2023/03/06 11:26:30;;;;;;;18.08;10.77;;;;;;;12.27;42.54;94415.06;5017862;28;20202;-63
2023/03/06 11:29:18;;;;;;;16.70;11.02;;;;;;;12.55;41.92;94410.19;5017459;28;20203;-61
2023/03/06 11:31:51;;;;;;;16.30;9.52;;;;;;;12.81;41.51;94395.28;5023016;28;20869;-63